Terminal Aerodrome Forecast
Issued by NWS

Home | Current Version | Previous Version | Text Only | Print | Product List | Glossary On
Versions: 1 2 3 4 5 6 7 8 9 10 11 12 13 14 15 16 17 18 19 20 21 22 23 24 25 26 27 28 29 30 31 32 33 34 35 36 37 38 39 40 41 42 43 44
000
FTUS45 KGJT 231904 AAB
TAFASE
TAF AMD
KASE 231904Z 2319/2418 36010G20KT P6SM -SHRA FEW010 SCT020 OVC050
     FM232000 33012KT P6SM VCTS SCT050CB BKN090
      TEMPO 2320/2324 4SM -TSRA BKN040CB OVC060
     FM240000 19005KT P6SM VCSH SCT040 BKN070
     FM240600 VRB03KT P6SM BKN060=

USA.gov is the U.S. government's official web portal to all federal, state and local government web resources and services.